sensor_id;sensor_type;location;lat;lon;timestamp;P1;durP1;ratioP1;P2;durP2;ratioP2
78322;SDS011;67583;50.616;-3.404;2023-02-15T00:01:27;78.10;;;43.45;;
78322;SDS011;67583;50.616;-3.404;2023-02-15T00:06:18;73.07;;;39.17;;
78322;SDS011;67583;50.616;-3.404;2023-02-15T00:08:44;73.03;;;39.78;;
78322;SDS011;67583;50.616;-3.404;2023-02-15T00:13:37;81.40;;;44.08;;
78322;SDS011;67583;50.616;-3.404;2023-02-15T00:16:10;89.32;;;49.10;;
78322;SDS011;67583;50.616;-3.404;2023-02-15T00:18:39;84.45;;;44.45;;
78322;SDS011;67583;50.616;-3.404;2023-02-15T00:21:06;81.50;;;44.72;;
78322;SDS011;67583;50.616;-3.404;2023-02-15T00:23:35;74.80;;;40.65;;
78322;SDS011;67583;50.616;-3.404;2023-02-15T00:26:11;89.20;;;49.53;;
78322;SDS011;67583;50.616;-3.404;2023-02-15T00:28:39;80.22;;;42.22;;
78322;SDS011;67583;50.616;-3.404;2023-02-15T00:33:33;67.38;;;36.53;;
78322;SDS011;67583;50.616;-3.404;2023-02-15T00:36:05;62.60;;;36.03;;
78322;SDS011;67583;50.616;-3.404;2023-02-15T00:38:35;63.50;;;34.90;;
78322;SDS011;67583;50.616;-3.404;2023-02-15T00:43:28;60.67;;;33.05;;
78322;SDS011;67583;50.616;-3.404;2023-02-15T00:45:54;60.97;;;35.25;;
78322;SDS011;67583;50.616;-3.404;2023-02-15T00:48:21;65.18;;;35.15;;
78322;SDS011;67583;50.616;-3.404;2023-02-15T00:50:57;60.55;;;34.00;;
78322;SDS011;67583;50.616;-3.404;2023-02-15T00:53:24;48.65;;;27.67;;
78322;SDS011;67583;50.616;-3.404;2023-02-15T00:55:50;57.28;;;33.22;;
78322;SDS011;67583;50.616;-3.404;2023-02-15T01:00:45;62.80;;;34.20;;
78322;SDS011;67583;50.616;-3.404;2023-02-15T01:03:14;58.58;;;33.42;;
78322;SDS011;67583;50.616;-3.404;2023-02-15T01:05:42;46.90;;;28.10;;
78322;SDS011;67583;50.616;-3.404;2023-02-15T01:10:34;52.53;;;27.17;;
78322;SDS011;67583;50.616;-3.404;2023-02-15T01:13:04;43.72;;;24.35;;
78322;SDS011;67583;50.616;-3.404;2023-02-15T01:15:37;43.22;;;25.02;;
78322;SDS011;67583;50.616;-3.404;2023-02-15T01:18:06;47.97;;;27.13;;
78322;SDS011;67583;50.616;-3.404;2023-02-15T01:20:34;41.65;;;24.67;;
78322;SDS011;67583;50.616;-3.404;2023-02-15T01:23:04;37.97;;;22.80;;
78322;SDS011;67583;50.616;-3.404;2023-02-15T01:25:32;36.70;;;21.83;;
78322;SDS011;67583;50.616;-3.404;2023-02-15T01:28:01;34.63;;;21.67;;
78322;SDS011;67583;50.616;-3.404;2023-02-15T01:30:31;41.75;;;25.05;;
78322;SDS011;67583;50.616;-3.404;2023-02-15T01:32:59;39.65;;;23.00;;
78322;SDS011;67583;50.616;-3.404;2023-02-15T01:35:28;44.03;;;26.35;;
78322;SDS011;67583;50.616;-3.404;2023-02-15T01:40:19;47.75;;;25.00;;
78322;SDS011;67583;50.616;-3.404;2023-02-15T01:45:20;40.88;;;22.80;;
78322;SDS011;67583;50.616;-3.404;2023-02-15T01:55:47;43.15;;;23.05;;
78322;SDS011;67583;50.616;-3.404;2023-02-15T01:58:28;42.30;;;24.85;;
78322;SDS011;67583;50.616;-3.404;2023-02-15T02:03:21;44.92;;;22.95;;
78322;SDS011;67583;50.616;-3.404;2023-02-15T02:05:55;39.60;;;22.80;;
78322;SDS011;67583;50.616;-3.404;2023-02-15T02:10:45;36.50;;;21.57;;
78322;SDS011;67583;50.616;-3.404;2023-02-15T02:15:40;42.53;;;23.23;;
78322;SDS011;67583;50.616;-3.404;2023-02-15T02:18:27;39.92;;;23.15;;
78322;SDS011;67583;50.616;-3.404;2023-02-15T02:21:30;42.17;;;23.27;;
78322;SDS011;67583;50.616;-3.404;2023-02-15T02:39:58;44.63;;;24.15;;
78322;SDS011;67583;50.616;-3.404;2023-02-15T02:45:05;41.42;;;23.83;;
78322;SDS011;67583;50.616;-3.404;2023-02-15T02:50:12;49.40;;;23.13;;
78322;SDS011;67583;50.616;-3.404;2023-02-15T02:52:44;44.03;;;25.85;;
78322;SDS011;67583;50.616;-3.404;2023-02-15T02:55:21;59.60;;;30.70;;
78322;SDS011;67583;50.616;-3.404;2023-02-15T03:00:40;41.13;;;23.05;;
78322;SDS011;67583;50.616;-3.404;2023-02-15T03:03:08;45.03;;;24.02;;
78322;SDS011;67583;50.616;-3.404;2023-02-15T03:05:38;42.47;;;24.48;;
78322;SDS011;67583;50.616;-3.404;2023-02-15T03:08:06;46.05;;;23.02;;
78322;SDS011;67583;50.616;-3.404;2023-02-15T03:10:35;45.70;;;24.23;;
78322;SDS011;67583;50.616;-3.404;2023-02-15T03:13:02;42.30;;;23.10;;
78322;SDS011;67583;50.616;-3.404;2023-02-15T03:15:31;42.75;;;26.23;;
78322;SDS011;67583;50.616;-3.404;2023-02-15T03:18:20;41.65;;;25.33;;
78322;SDS011;67583;50.616;-3.404;2023-02-15T03:20:51;50.28;;;26.30;;
78322;SDS011;67583;50.616;-3.404;2023-02-15T03:23:19;44.58;;;24.05;;
78322;SDS011;67583;50.616;-3.404;2023-02-15T03:25:48;53.90;;;30.10;;
78322;SDS011;67583;50.616;-3.404;2023-02-15T03:28:20;51.55;;;27.00;;
78322;SDS011;67583;50.616;-3.404;2023-02-15T03:30:51;59.80;;;32.13;;
78322;SDS011;67583;50.616;-3.404;2023-02-15T03:33:19;47.33;;;25.38;;
78322;SDS011;67583;50.616;-3.404;2023-02-15T03:35:47;47.05;;;24.25;;
78322;SDS011;67583;50.616;-3.404;2023-02-15T03:38:21;48.30;;;26.67;;
78322;SDS011;67583;50.616;-3.404;2023-02-15T03:40:54;41.55;;;21.55;;
78322;SDS011;67583;50.616;-3.404;2023-02-15T03:43:39;36.95;;;20.50;;
78322;SDS011;67583;50.616;-3.404;2023-02-15T03:48:43;46.70;;;25.77;;
78322;SDS011;67583;50.616;-3.404;2023-02-15T03:51:12;47.97;;;28.63;;
78322;SDS011;67583;50.616;-3.404;2023-02-15T03:54:11;53.95;;;28.23;;
78322;SDS011;67583;50.616;-3.404;2023-02-15T03:56:59;55.55;;;29.15;;
78322;SDS011;67583;50.616;-3.404;2023-02-15T03:59:43;63.72;;;31.80;;
78322;SDS011;67583;50.616;-3.404;2023-02-15T04:02:27;74.50;;;35.08;;
78322;SDS011;67583;50.616;-3.404;2023-02-15T04:04:59;66.97;;;30.73;;
78322;SDS011;67583;50.616;-3.404;2023-02-15T04:09:49;75.87;;;34.13;;
78322;SDS011;67583;50.616;-3.404;2023-02-15T04:12:33;69.45;;;31.52;;
78322;SDS011;67583;50.616;-3.404;2023-02-15T04:17:42;51.33;;;27.65;;
78322;SDS011;67583;50.616;-3.404;2023-02-15T04:22:52;52.28;;;28.77;;
78322;SDS011;67583;50.616;-3.404;2023-02-15T04:25:36;54.40;;;29.25;;
78322;SDS011;67583;50.616;-3.404;2023-02-15T04:28:01;57.55;;;29.70;;
78322;SDS011;67583;50.616;-3.404;2023-02-15T04:32:53;48.17;;;27.98;;
78322;SDS011;67583;50.616;-3.404;2023-02-15T04:35:18;50.25;;;27.35;;
78322;SDS011;67583;50.616;-3.404;2023-02-15T04:40:10;44.40;;;23.80;;
78322;SDS011;67583;50.616;-3.404;2023-02-15T04:42:37;46.88;;;25.50;;
78322;SDS011;67583;50.616;-3.404;2023-02-15T04:47:27;41.90;;;22.75;;
78322;SDS011;67583;50.616;-3.404;2023-02-15T04:52:18;30.03;;;19.20;;
78322;SDS011;67583;50.616;-3.404;2023-02-15T04:54:44;40.60;;;22.55;;
78322;SDS011;67583;50.616;-3.404;2023-02-15T04:59:34;35.90;;;19.33;;
78322;SDS011;67583;50.616;-3.404;2023-02-15T05:04:25;36.10;;;19.87;;
78322;SDS011;67583;50.616;-3.404;2023-02-15T05:09:16;31.70;;;16.83;;
78322;SDS011;67583;50.616;-3.404;2023-02-15T05:11:41;31.08;;;17.55;;
78322;SDS011;67583;50.616;-3.404;2023-02-15T05:16:32;23.65;;;15.63;;
78322;SDS011;67583;50.616;-3.404;2023-02-15T05:21:23;23.92;;;15.75;;
78322;SDS011;67583;50.616;-3.404;2023-02-15T05:26:16;28.15;;;14.80;;
78322;SDS011;67583;50.616;-3.404;2023-02-15T05:29:03;32.78;;;15.05;;
78322;SDS011;67583;50.616;-3.404;2023-02-15T05:31:28;31.40;;;15.02;;
78322;SDS011;67583;50.616;-3.404;2023-02-15T05:33:54;24.27;;;14.40;;
78322;SDS011;67583;50.616;-3.404;2023-02-15T05:36:19;30.27;;;13.23;;
78322;SDS011;67583;50.616;-3.404;2023-02-15T05:41:10;25.27;;;12.68;;
78322;SDS011;67583;50.616;-3.404;2023-02-15T05:43:36;20.42;;;12.38;;
78322;SDS011;67583;50.616;-3.404;2023-02-15T05:46:03;18.77;;;13.27;;
78322;SDS011;67583;50.616;-3.404;2023-02-15T05:48:28;25.88;;;14.10;;
78322;SDS011;67583;50.616;-3.404;2023-02-15T05:50:58;18.92;;;12.30;;
78322;SDS011;67583;50.616;-3.404;2023-02-15T05:53:24;20.80;;;13.05;;
78322;SDS011;67583;50.616;-3.404;2023-02-15T05:55:50;22.20;;;13.60;;
78322;SDS011;67583;50.616;-3.404;2023-02-15T05:58:15;22.05;;;13.73;;
78322;SDS011;67583;50.616;-3.404;2023-02-15T06:03:06;23.23;;;13.10;;
78322;SDS011;67583;50.616;-3.404;2023-02-15T06:05:31;23.63;;;14.23;;
78322;SDS011;67583;50.616;-3.404;2023-02-15T06:10:22;30.43;;;13.30;;
78322;SDS011;67583;50.616;-3.404;2023-02-15T06:15:12;21.53;;;12.37;;
78322;SDS011;67583;50.616;-3.404;2023-02-15T06:17:40;25.73;;;14.48;;
78322;SDS011;67583;50.616;-3.404;2023-02-15T06:20:06;22.73;;;14.13;;
78322;SDS011;67583;50.616;-3.404;2023-02-15T06:22:33;20.35;;;12.93;;
78322;SDS011;67583;50.616;-3.404;2023-02-15T06:24:58;23.60;;;12.68;;
78322;SDS011;67583;50.616;-3.404;2023-02-15T06:29:49;26.73;;;13.17;;
78322;SDS011;67583;50.616;-3.404;2023-02-15T06:34:39;28.50;;;14.77;;
78322;SDS011;67583;50.616;-3.404;2023-02-15T06:39:30;17.60;;;11.13;;
78322;SDS011;67583;50.616;-3.404;2023-02-15T06:41:57;21.70;;;13.05;;
78322;SDS011;67583;50.616;-3.404;2023-02-15T06:44:22;26.38;;;14.38;;
78322;SDS011;67583;50.616;-3.404;2023-02-15T06:46:48;20.40;;;12.52;;
78322;SDS011;67583;50.616;-3.404;2023-02-15T06:51:38;21.45;;;12.85;;
78322;SDS011;67583;50.616;-3.404;2023-02-15T06:56:29;27.58;;;13.63;;
78322;SDS011;67583;50.616;-3.404;2023-02-15T07:01:20;22.70;;;12.60;;
78322;SDS011;67583;50.616;-3.404;2023-02-15T07:06:10;25.50;;;13.60;;
78322;SDS011;67583;50.616;-3.404;2023-02-15T07:11:02;29.27;;;13.10;;
78322;SDS011;67583;50.616;-3.404;2023-02-15T07:13:46;31.15;;;14.68;;
78322;SDS011;67583;50.616;-3.404;2023-02-15T07:16:12;31.02;;;13.18;;
78322;SDS011;67583;50.616;-3.404;2023-02-15T07:21:03;20.70;;;11.30;;
78322;SDS011;67583;50.616;-3.404;2023-02-15T07:25:57;31.20;;;13.93;;
78322;SDS011;67583;50.616;-3.404;2023-02-15T07:28:23;30.05;;;14.88;;
78322;SDS011;67583;50.616;-3.404;2023-02-15T07:33:14;25.90;;;12.23;;
78322;SDS011;67583;50.616;-3.404;2023-02-15T07:35:49;26.92;;;14.02;;
78322;SDS011;67583;50.616;-3.404;2023-02-15T07:38:15;29.48;;;12.77;;
78322;SDS011;67583;50.616;-3.404;2023-02-15T07:43:06;26.73;;;13.35;;
78322;SDS011;67583;50.616;-3.404;2023-02-15T07:47:57;24.77;;;12.57;;
78322;SDS011;67583;50.616;-3.404;2023-02-15T07:52:48;25.75;;;12.63;;
78322;SDS011;67583;50.616;-3.404;2023-02-15T07:55:13;21.83;;;10.27;;
78322;SDS011;67583;50.616;-3.404;2023-02-15T08:00:09;24.75;;;11.88;;
78322;SDS011;67583;50.616;-3.404;2023-02-15T08:02:35;26.08;;;13.07;;
78322;SDS011;67583;50.616;-3.404;2023-02-15T08:05:02;30.88;;;12.68;;
78322;SDS011;67583;50.616;-3.404;2023-02-15T08:07:27;21.08;;;12.60;;
78322;SDS011;67583;50.616;-3.404;2023-02-15T08:09:52;24.95;;;14.23;;
78322;SDS011;67583;50.616;-3.404;2023-02-15T08:14:43;27.20;;;13.93;;
78322;SDS011;67583;50.616;-3.404;2023-02-15T08:19:34;18.03;;;11.77;;
78322;SDS011;67583;50.616;-3.404;2023-02-15T08:22:10;22.92;;;13.13;;
78322;SDS011;67583;50.616;-3.404;2023-02-15T08:24:38;23.00;;;13.55;;
78322;SDS011;67583;50.616;-3.404;2023-02-15T08:27:04;28.48;;;13.95;;
78322;SDS011;67583;50.616;-3.404;2023-02-15T08:29:30;26.67;;;14.05;;
78322;SDS011;67583;50.616;-3.404;2023-02-15T08:32:00;27.23;;;14.23;;
78322;SDS011;67583;50.616;-3.404;2023-02-15T08:34:28;27.92;;;12.70;;
78322;SDS011;67583;50.616;-3.404;2023-02-15T08:36:55;22.00;;;11.43;;
78322;SDS011;67583;50.616;-3.404;2023-02-15T08:39:20;23.67;;;12.77;;
78322;SDS011;67583;50.616;-3.404;2023-02-15T08:41:47;25.88;;;13.75;;
78322;SDS011;67583;50.616;-3.404;2023-02-15T08:44:13;27.67;;;13.45;;
78322;SDS011;67583;50.616;-3.404;2023-02-15T08:46:41;16.88;;;10.52;;
78322;SDS011;67583;50.616;-3.404;2023-02-15T08:49:07;26.00;;;11.68;;
78322;SDS011;67583;50.616;-3.404;2023-02-15T08:51:34;23.17;;;11.48;;
78322;SDS011;67583;50.616;-3.404;2023-02-15T08:54:01;19.92;;;11.85;;
78322;SDS011;67583;50.616;-3.404;2023-02-15T08:56:30;28.20;;;13.55;;
78322;SDS011;67583;50.616;-3.404;2023-02-15T08:58:58;24.25;;;11.23;;
78322;SDS011;67583;50.616;-3.404;2023-02-15T09:01:25;21.58;;;11.45;;
78322;SDS011;67583;50.616;-3.404;2023-02-15T09:03:53;21.20;;;11.93;;
78322;SDS011;67583;50.616;-3.404;2023-02-15T09:06:21;23.27;;;10.88;;
78322;SDS011;67583;50.616;-3.404;2023-02-15T09:08:47;18.80;;;10.98;;
78322;SDS011;67583;50.616;-3.404;2023-02-15T09:11:14;25.95;;;13.45;;
78322;SDS011;67583;50.616;-3.404;2023-02-15T09:13:48;20.17;;;11.15;;
78322;SDS011;67583;50.616;-3.404;2023-02-15T09:16:21;27.27;;;13.38;;
78322;SDS011;67583;50.616;-3.404;2023-02-15T09:18:48;42.70;;;15.10;;
78322;SDS011;67583;50.616;-3.404;2023-02-15T09:21:15;26.38;;;13.82;;
78322;SDS011;67583;50.616;-3.404;2023-02-15T09:23:42;27.63;;;13.82;;
78322;SDS011;67583;50.616;-3.404;2023-02-15T09:26:10;30.40;;;12.27;;
78322;SDS011;67583;50.616;-3.404;2023-02-15T09:28:37;32.72;;;12.82;;
78322;SDS011;67583;50.616;-3.404;2023-02-15T09:31:06;30.08;;;13.10;;
78322;SDS011;67583;50.616;-3.404;2023-02-15T09:33:42;28.63;;;11.48;;
78322;SDS011;67583;50.616;-3.404;2023-02-15T09:36:19;32.97;;;12.45;;
78322;SDS011;67583;50.616;-3.404;2023-02-15T09:38:56;25.27;;;11.43;;
78322;SDS011;67583;50.616;-3.404;2023-02-15T09:55:09;18.00;;;9.85;;
78322;SDS011;67583;50.616;-3.404;2023-02-15T10:01:01;27.65;;;11.27;;
78322;SDS011;67583;50.616;-3.404;2023-02-15T10:03:35;19.27;;;8.93;;
78322;SDS011;67583;50.616;-3.404;2023-02-15T10:11:13;20.80;;;8.48;;
78322;SDS011;67583;50.616;-3.404;2023-02-15T10:19:27;26.55;;;8.98;;
78322;SDS011;67583;50.616;-3.404;2023-02-15T10:22:14;24.70;;;9.40;;
78322;SDS011;67583;50.616;-3.404;2023-02-15T10:25:00;16.17;;;9.02;;
78322;SDS011;67583;50.616;-3.404;2023-02-15T10:27:37;23.35;;;10.10;;
78322;SDS011;67583;50.616;-3.404;2023-02-15T10:30:11;17.00;;;8.18;;
78322;SDS011;67583;50.616;-3.404;2023-02-15T10:32:47;25.27;;;10.68;;
78322;SDS011;67583;50.616;-3.404;2023-02-15T10:35:25;15.63;;;10.48;;
78322;SDS011;67583;50.616;-3.404;2023-02-15T10:49:08;20.67;;;8.30;;
78322;SDS011;67583;50.616;-3.404;2023-02-15T10:54:48;18.98;;;7.10;;
78322;SDS011;67583;50.616;-3.404;2023-02-15T10:57:37;16.65;;;7.72;;
78322;SDS011;67583;50.616;-3.404;2023-02-15T11:00:16;22.33;;;8.70;;
78322;SDS011;67583;50.616;-3.404;2023-02-15T11:07:46;23.25;;;9.32;;
78322;SDS011;67583;50.616;-3.404;2023-02-15T11:12:38;21.00;;;9.63;;
78322;SDS011;67583;50.616;-3.404;2023-02-15T11:15:15;21.00;;;8.48;;
78322;SDS011;67583;50.616;-3.404;2023-02-15T11:17:43;18.30;;;8.40;;
78322;SDS011;67583;50.616;-3.404;2023-02-15T11:20:25;16.92;;;7.15;;
78322;SDS011;67583;50.616;-3.404;2023-02-15T11:22:58;21.30;;;8.20;;
78322;SDS011;67583;50.616;-3.404;2023-02-15T11:25:28;23.90;;;8.27;;
78322;SDS011;67583;50.616;-3.404;2023-02-15T11:27:56;23.75;;;8.73;;
78322;SDS011;67583;50.616;-3.404;2023-02-15T11:30:23;31.13;;;10.80;;
78322;SDS011;67583;50.616;-3.404;2023-02-15T11:32:51;17.75;;;7.80;;
78322;SDS011;67583;50.616;-3.404;2023-02-15T11:35:27;20.17;;;7.60;;
78322;SDS011;67583;50.616;-3.404;2023-02-15T11:43:26;17.38;;;7.15;;
78322;SDS011;67583;50.616;-3.404;2023-02-15T11:45:55;17.02;;;7.32;;
78322;SDS011;67583;50.616;-3.404;2023-02-15T11:48:20;19.67;;;7.05;;
78322;SDS011;67583;50.616;-3.404;2023-02-15T11:50:46;22.77;;;7.50;;
78322;SDS011;67583;50.616;-3.404;2023-02-15T11:53:13;19.33;;;7.05;;
78322;SDS011;67583;50.616;-3.404;2023-02-15T11:55:41;17.00;;;6.82;;
78322;SDS011;67583;50.616;-3.404;2023-02-15T12:00:45;21.80;;;7.47;;
78322;SDS011;67583;50.616;-3.404;2023-02-15T12:03:22;19.92;;;8.23;;
78322;SDS011;67583;50.616;-3.404;2023-02-15T12:05:55;19.00;;;7.10;;
78322;SDS011;67583;50.616;-3.404;2023-02-15T12:08:22;14.38;;;7.13;;
78322;SDS011;67583;50.616;-3.404;2023-02-15T12:10:58;12.43;;;6.40;;
78322;SDS011;67583;50.616;-3.404;2023-02-15T12:13:28;13.80;;;6.75;;
78322;SDS011;67583;50.616;-3.404;2023-02-15T12:15:55;16.42;;;7.07;;
78322;SDS011;67583;50.616;-3.404;2023-02-15T12:18:33;19.63;;;7.25;;
78322;SDS011;67583;50.616;-3.404;2023-02-15T12:21:00;18.30;;;6.68;;
78322;SDS011;67583;50.616;-3.404;2023-02-15T12:25:57;12.02;;;6.15;;
78322;SDS011;67583;50.616;-3.404;2023-02-15T12:28:42;13.55;;;5.55;;
78322;SDS011;67583;50.616;-3.404;2023-02-15T12:31:17;13.85;;;5.25;;
78322;SDS011;67583;50.616;-3.404;2023-02-15T12:33:45;16.75;;;5.93;;
78322;SDS011;67583;50.616;-3.404;2023-02-15T12:39:04;13.90;;;7.00;;
78322;SDS011;67583;50.616;-3.404;2023-02-15T12:41:36;15.63;;;5.72;;
78322;SDS011;67583;50.616;-3.404;2023-02-15T12:44:17;19.35;;;6.05;;
78322;SDS011;67583;50.616;-3.404;2023-02-15T12:46:55;15.32;;;5.38;;
78322;SDS011;67583;50.616;-3.404;2023-02-15T12:49:33;25.73;;;5.93;;
78322;SDS011;67583;50.616;-3.404;2023-02-15T12:52:25;12.80;;;5.68;;
78322;SDS011;67583;50.616;-3.404;2023-02-15T12:54:54;25.23;;;6.22;;
78322;SDS011;67583;50.616;-3.404;2023-02-15T12:57:30;16.50;;;7.13;;
78322;SDS011;67583;50.616;-3.404;2023-02-15T13:05:04;17.20;;;6.72;;
78322;SDS011;67583;50.616;-3.404;2023-02-15T13:07:57;13.68;;;5.50;;
78322;SDS011;67583;50.616;-3.404;2023-02-15T13:13:19;15.88;;;5.38;;
78322;SDS011;67583;50.616;-3.404;2023-02-15T13:15:54;16.20;;;6.75;;
78322;SDS011;67583;50.616;-3.404;2023-02-15T13:18:29;18.40;;;6.13;;
78322;SDS011;67583;50.616;-3.404;2023-02-15T13:21:25;16.60;;;6.05;;
78322;SDS011;67583;50.616;-3.404;2023-02-15T13:24:45;22.52;;;5.78;;
78322;SDS011;67583;50.616;-3.404;2023-02-15T13:26:50;23.83;;;7.28;;
78322;SDS011;67583;50.616;-3.404;2023-02-15T13:29:23;21.75;;;7.57;;
78322;SDS011;67583;50.616;-3.404;2023-02-15T13:31:54;18.92;;;6.72;;
78322;SDS011;67583;50.616;-3.404;2023-02-15T13:37:02;24.70;;;8.70;;
78322;SDS011;67583;50.616;-3.404;2023-02-15T13:39:31;21.70;;;6.13;;
78322;SDS011;67583;50.616;-3.404;2023-02-15T13:50:04;22.70;;;6.55;;
78322;SDS011;67583;50.616;-3.404;2023-02-15T13:52:47;24.92;;;7.00;;
78322;SDS011;67583;50.616;-3.404;2023-02-15T14:07:09;21.88;;;7.32;;
78322;SDS011;67583;50.616;-3.404;2023-02-15T14:15:36;31.33;;;8.38;;
78322;SDS011;67583;50.616;-3.404;2023-02-15T14:23:04;18.25;;;5.93;;
78322;SDS011;67583;50.616;-3.404;2023-02-15T14:26:04;15.00;;;6.10;;
78322;SDS011;67583;50.616;-3.404;2023-02-15T14:31:25;20.90;;;8.63;;
78322;SDS011;67583;50.616;-3.404;2023-02-15T14:33:57;25.23;;;6.10;;
78322;SDS011;67583;50.616;-3.404;2023-02-15T14:36:23;17.63;;;7.45;;
78322;SDS011;67583;50.616;-3.404;2023-02-15T14:42:04;19.27;;;6.38;;
78322;SDS011;67583;50.616;-3.404;2023-02-15T14:44:57;16.75;;;6.57;;
78322;SDS011;67583;50.616;-3.404;2023-02-15T14:47:36;24.00;;;7.35;;
78322;SDS011;67583;50.616;-3.404;2023-02-15T15:01:34;23.30;;;7.00;;
78322;SDS011;67583;50.616;-3.404;2023-02-15T15:04:06;23.38;;;7.75;;
78322;SDS011;67583;50.616;-3.404;2023-02-15T15:06:35;26.27;;;7.43;;
78322;SDS011;67583;50.616;-3.404;2023-02-15T15:16:56;12.90;;;5.03;;
78322;SDS011;67583;50.616;-3.404;2023-02-15T15:22:19;3.60;;;2.35;;
78322;SDS011;67583;50.616;-3.404;2023-02-15T15:44:04;2.53;;;1.80;;
78322;SDS011;67583;50.616;-3.404;2023-02-15T15:49:35;4.60;;;3.03;;
78322;SDS011;67583;50.616;-3.404;2023-02-15T15:52:07;2.80;;;2.20;;
78322;SDS011;67583;50.616;-3.404;2023-02-15T15:54:37;3.92;;;3.10;;
78322;SDS011;67583;50.616;-3.404;2023-02-15T15:57:03;4.68;;;3.28;;
78322;SDS011;67583;50.616;-3.404;2023-02-15T15:59:30;3.67;;;2.28;;
78322;SDS011;67583;50.616;-3.404;2023-02-15T16:02:03;4.22;;;2.53;;
78322;SDS011;67583;50.616;-3.404;2023-02-15T16:04:33;6.22;;;3.15;;
78322;SDS011;67583;50.616;-3.404;2023-02-15T16:10:00;2.78;;;1.83;;
78322;SDS011;67583;50.616;-3.404;2023-02-15T16:14:54;3.55;;;2.15;;
78322;SDS011;67583;50.616;-3.404;2023-02-15T16:17:20;2.50;;;1.77;;
78322;SDS011;67583;50.616;-3.404;2023-02-15T16:19:51;3.28;;;2.15;;
78322;SDS011;67583;50.616;-3.404;2023-02-15T16:22:25;4.65;;;1.60;;
78322;SDS011;67583;50.616;-3.404;2023-02-15T16:27:53;19.70;;;9.07;;
78322;SDS011;67583;50.616;-3.404;2023-02-15T16:33:05;5.53;;;3.92;;
78322;SDS011;67583;50.616;-3.404;2023-02-15T16:35:38;8.82;;;6.97;;
78322;SDS011;67583;50.616;-3.404;2023-02-15T16:38:04;13.68;;;7.95;;
78322;SDS011;67583;50.616;-3.404;2023-02-15T16:40:46;8.23;;;5.18;;
78322;SDS011;67583;50.616;-3.404;2023-02-15T16:43:15;4.47;;;2.67;;
78322;SDS011;67583;50.616;-3.404;2023-02-15T16:45:43;6.32;;;3.80;;
78322;SDS011;67583;50.616;-3.404;2023-02-15T16:48:11;6.97;;;5.30;;
78322;SDS011;67583;50.616;-3.404;2023-02-15T16:50:39;6.45;;;4.82;;
78322;SDS011;67583;50.616;-3.404;2023-02-15T16:53:05;7.70;;;4.93;;
78322;SDS011;67583;50.616;-3.404;2023-02-15T16:55:35;4.40;;;2.83;;
78322;SDS011;67583;50.616;-3.404;2023-02-15T16:58:03;3.38;;;2.17;;
78322;SDS011;67583;50.616;-3.404;2023-02-15T17:00:36;3.15;;;1.80;;
78322;SDS011;67583;50.616;-3.404;2023-02-15T17:03:19;4.35;;;2.40;;
78322;SDS011;67583;50.616;-3.404;2023-02-15T17:05:48;3.42;;;2.60;;
78322;SDS011;67583;50.616;-3.404;2023-02-15T17:08:19;3.45;;;2.40;;
78322;SDS011;67583;50.616;-3.404;2023-02-15T17:13:24;4.18;;;2.38;;
78322;SDS011;67583;50.616;-3.404;2023-02-15T17:18:29;3.38;;;2.63;;
78322;SDS011;67583;50.616;-3.404;2023-02-15T17:20:59;2.28;;;1.70;;
78322;SDS011;67583;50.616;-3.404;2023-02-15T17:25:55;2.22;;;1.50;;
78322;SDS011;67583;50.616;-3.404;2023-02-15T17:28:25;2.33;;;1.50;;
78322;SDS011;67583;50.616;-3.404;2023-02-15T17:30:55;3.70;;;1.70;;
78322;SDS011;67583;50.616;-3.404;2023-02-15T17:33:25;4.57;;;2.13;;
78322;SDS011;67583;50.616;-3.404;2023-02-15T17:36:20;4.55;;;2.63;;
78322;SDS011;67583;50.616;-3.404;2023-02-15T17:41:27;6.82;;;3.75;;
78322;SDS011;67583;50.616;-3.404;2023-02-15T17:43:53;5.85;;;3.67;;
78322;SDS011;67583;50.616;-3.404;2023-02-15T17:46:18;4.85;;;2.97;;
78322;SDS011;67583;50.616;-3.404;2023-02-15T17:48:47;6.45;;;3.28;;
78322;SDS011;67583;50.616;-3.404;2023-02-15T17:51:14;5.88;;;4.28;;
78322;SDS011;67583;50.616;-3.404;2023-02-15T17:53:41;13.25;;;7.75;;
78322;SDS011;67583;50.616;-3.404;2023-02-15T17:56:30;21.77;;;12.05;;
78322;SDS011;67583;50.616;-3.404;2023-02-15T17:58:56;23.52;;;13.70;;
78322;SDS011;67583;50.616;-3.404;2023-02-15T18:01:22;15.70;;;10.15;;
78322;SDS011;67583;50.616;-3.404;2023-02-15T18:04:13;10.90;;;7.18;;
78322;SDS011;67583;50.616;-3.404;2023-02-15T18:06:57;6.75;;;4.15;;
78322;SDS011;67583;50.616;-3.404;2023-02-15T18:09:41;5.68;;;3.35;;
78322;SDS011;67583;50.616;-3.404;2023-02-15T18:12:30;7.20;;;4.15;;
78322;SDS011;67583;50.616;-3.404;2023-02-15T18:14:57;13.23;;;5.57;;
78322;SDS011;67583;50.616;-3.404;2023-02-15T18:17:25;9.88;;;6.40;;
78322;SDS011;67583;50.616;-3.404;2023-02-15T18:19:52;9.43;;;7.10;;
78322;SDS011;67583;50.616;-3.404;2023-02-15T18:22:20;11.85;;;8.20;;
78322;SDS011;67583;50.616;-3.404;2023-02-15T18:24:47;15.10;;;8.90;;
78322;SDS011;67583;50.616;-3.404;2023-02-15T18:27:13;10.82;;;7.82;;
78322;SDS011;67583;50.616;-3.404;2023-02-15T18:29:39;14.02;;;7.68;;
78322;SDS011;67583;50.616;-3.404;2023-02-15T18:32:06;10.90;;;6.80;;
78322;SDS011;67583;50.616;-3.404;2023-02-15T18:34:37;11.25;;;6.60;;
78322;SDS011;67583;50.616;-3.404;2023-02-15T18:37:04;8.68;;;6.40;;
78322;SDS011;67583;50.616;-3.404;2023-02-15T18:39:46;9.80;;;5.88;;
78322;SDS011;67583;50.616;-3.404;2023-02-15T18:42:17;8.07;;;4.82;;
78322;SDS011;67583;50.616;-3.404;2023-02-15T18:44:48;5.97;;;4.25;;
78322;SDS011;67583;50.616;-3.404;2023-02-15T18:47:14;5.10;;;3.83;;
78322;SDS011;67583;50.616;-3.404;2023-02-15T18:52:05;4.50;;;3.83;;
78322;SDS011;67583;50.616;-3.404;2023-02-15T18:56:56;7.23;;;4.10;;
78322;SDS011;67583;50.616;-3.404;2023-02-15T18:59:23;7.32;;;4.22;;
78322;SDS011;67583;50.616;-3.404;2023-02-15T19:01:50;4.50;;;3.00;;
78322;SDS011;67583;50.616;-3.404;2023-02-15T19:04:16;4.32;;;2.92;;
78322;SDS011;67583;50.616;-3.404;2023-02-15T19:09:11;5.43;;;3.65;;
78322;SDS011;67583;50.616;-3.404;2023-02-15T19:11:39;6.78;;;4.55;;
78322;SDS011;67583;50.616;-3.404;2023-02-15T19:16:31;7.67;;;4.57;;
78322;SDS011;67583;50.616;-3.404;2023-02-15T19:18:57;7.38;;;4.50;;
78322;SDS011;67583;50.616;-3.404;2023-02-15T19:23:56;5.97;;;4.30;;
78322;SDS011;67583;50.616;-3.404;2023-02-15T19:26:24;8.40;;;5.53;;
78322;SDS011;67583;50.616;-3.404;2023-02-15T19:28:51;9.98;;;6.07;;
78322;SDS011;67583;50.616;-3.404;2023-02-15T19:31:16;12.18;;;6.55;;
78322;SDS011;67583;50.616;-3.404;2023-02-15T19:36:12;8.80;;;5.65;;
78322;SDS011;67583;50.616;-3.404;2023-02-15T19:38:41;8.75;;;6.05;;
78322;SDS011;67583;50.616;-3.404;2023-02-15T19:41:08;7.72;;;5.00;;
78322;SDS011;67583;50.616;-3.404;2023-02-15T19:43:49;8.30;;;4.85;;
78322;SDS011;67583;50.616;-3.404;2023-02-15T19:46:18;8.95;;;5.43;;
78322;SDS011;67583;50.616;-3.404;2023-02-15T19:51:11;10.02;;;6.95;;
78322;SDS011;67583;50.616;-3.404;2023-02-15T19:53:37;9.60;;;6.70;;
78322;SDS011;67583;50.616;-3.404;2023-02-15T19:58:28;10.60;;;7.32;;
78322;SDS011;67583;50.616;-3.404;2023-02-15T20:03:19;13.40;;;8.27;;
78322;SDS011;67583;50.616;-3.404;2023-02-15T20:08:19;10.57;;;6.87;;
78322;SDS011;67583;50.616;-3.404;2023-02-15T20:10:46;10.00;;;6.72;;
78322;SDS011;67583;50.616;-3.404;2023-02-15T20:13:13;10.05;;;6.57;;
78322;SDS011;67583;50.616;-3.404;2023-02-15T20:15:39;7.50;;;5.55;;
78322;SDS011;67583;50.616;-3.404;2023-02-15T20:18:05;8.57;;;6.15;;
78322;SDS011;67583;50.616;-3.404;2023-02-15T20:23:21;8.63;;;5.75;;
78322;SDS011;67583;50.616;-3.404;2023-02-15T20:25:47;7.07;;;4.63;;